Time;durP1;ratioP1;P1;durP2;ratioP2;P2;SDS_P1;SDS_P2;PMS_P1;PMS_P2;Temp;Humidity;BMP_temperature;BMP_pressure;BME280_temperature;BME280_humidity;BME280_pressure;Samples;Min_cycle;Max_cycle;Signal;HPM_P1;HPM_P2
2022/12/29 00:01:55;;;;;;;4.57;1.92;;;;;;;;;;5060343;28;20727;-78
2022/12/29 00:04:20;;;;;;;3.22;1.92;;;;;;;;;;5059179;28;20052;-75
2022/12/29 00:06:45;;;;;;;3.88;1.98;;;;;;;;;;5060935;28;20090;-75
2022/12/29 00:09:15;;;;;;;4.97;2.10;;;;;;;;;;5060167;28;20102;-75
2022/12/29 00:11:40;;;;;;;3.03;1.88;;;;;;;;;;5052779;28;20056;-75
2022/12/29 00:16:49;;;;;;;4.80;2.00;;;;;;;;;;5061461;28;20472;-75
2022/12/29 00:36:19;;;;;;;2.65;1.63;;;;;;;;;;5059671;28;20051;-76
2022/12/29 00:44:20;;;;;;;2.67;1.30;;;;;;;;;;5063314;28;20043;-76
2022/12/29 00:46:46;;;;;;;2.42;1.30;;;;;;;;;;5064456;28;20088;-76
2022/12/29 00:49:31;;;;;;;2.80;1.13;;;;;;;;;;5060905;28;20033;-76
2022/12/29 00:52:05;;;;;;;3.20;1.10;;;;;;;;;;5072503;28;20028;-75
2022/12/29 00:54:33;;;;;;;1.55;0.90;;;;;;;;;;5065234;28;20477;-75
2022/12/29 00:56:59;;;;;;;1.42;0.77;;;;;;;;;;5068224;28;20035;-75
2022/12/29 00:59:25;;;;;;;2.35;0.90;;;;;;;;;;5070386;28;20020;-75
2022/12/29 01:01:52;;;;;;;2.00;0.85;;;;;;;;;;5074488;28;20103;-76
2022/12/29 01:04:17;;;;;;;3.25;0.88;;;;;;;;;;5086338;28;20039;-76
2022/12/29 01:06:43;;;;;;;1.55;0.80;;;;;;;;;;5072055;28;20021;-75
2022/12/29 01:11:53;;;;;;;1.25;0.70;;;;;;;;;;5070426;28;20039;-75
2022/12/29 01:14:19;;;;;;;1.20;0.80;;;;;;;;;;5065114;28;20036;-76
2022/12/29 01:16:45;;;;;;;2.78;0.90;;;;;;;;;;5064107;28;20055;-75
2022/12/29 01:19:11;;;;;;;1.27;0.82;;;;;;;;;;5074151;28;20029;-76
2022/12/29 01:21:37;;;;;;;2.63;1.10;;;;;;;;;;5072385;28;20416;-76
2022/12/29 01:24:02;;;;;;;1.38;0.80;;;;;;;;;;5071155;28;20039;-75
2022/12/29 01:26:28;;;;;;;1.50;0.98;;;;;;;;;;5073838;28;20388;-76
2022/12/29 01:28:53;;;;;;;1.98;1.10;;;;;;;;;;5070524;28;20059;-75
2022/12/29 01:31:19;;;;;;;1.58;1.10;;;;;;;;;;5071061;28;20464;-75
2022/12/29 01:33:44;;;;;;;2.47;1.33;;;;;;;;;;5067526;28;20123;-76
2022/12/29 01:36:12;;;;;;;3.33;1.30;;;;;;;;;;5068850;28;20109;-76
2022/12/29 01:38:38;;;;;;;2.22;1.20;;;;;;;;;;5072500;28;20111;-75
2022/12/29 01:41:05;;;;;;;2.30;1.40;;;;;;;;;;5065508;28;20111;-75
2022/12/29 01:43:48;;;;;;;2.30;1.25;;;;;;;;;;5071700;28;20487;-76
2022/12/29 01:46:18;;;;;;;;;;;;;;;;;;5071366;28;20031;-75
2022/12/29 01:48:45;;;;;;;2.35;1.40;;;;;;;;;;5070047;28;19919;-76
2022/12/29 01:51:10;;;;;;;1.90;1.20;;;;;;;;;;5064104;28;20491;-76
2022/12/29 01:53:36;;;;;;;1.70;1.10;;;;;;;;;;5066937;28;20024;-75
2022/12/29 01:56:07;;;;;;;2.53;1.08;;;;;;;;;;5064594;28;20036;-75
2022/12/29 01:58:37;;;;;;;1.55;1.00;;;;;;;;;;5069319;28;20032;-75
2022/12/29 02:01:03;;;;;;;1.42;0.98;;;;;;;;;;5065579;28;20040;-76
2022/12/29 02:03:32;;;;;;;2.30;1.10;;;;;;;;;;5068919;28;20051;-75
2022/12/29 02:06:19;;;;;;;3.35;1.10;;;;;;;;;;5068929;28;20497;-75
2022/12/29 02:08:47;;;;;;;2.22;0.95;;;;;;;;;;5071346;28;20040;-75
2022/12/29 02:11:13;;;;;;;2.17;0.90;;;;;;;;;;5070652;28;20032;-76
2022/12/29 02:13:38;;;;;;;2.90;0.80;;;;;;;;;;5070758;28;20037;-75
2022/12/29 02:16:25;;;;;;;2.50;0.80;;;;;;;;;;5069298;28;20021;-75
2022/12/29 02:19:08;;;;;;;3.13;0.80;;;;;;;;;;5066694;28;20477;-75
2022/12/29 02:21:50;;;;;;;1.50;0.68;;;;;;;;;;5067069;28;20025;-77
2022/12/29 02:24:28;;;;;;;4.07;0.70;;;;;;;;;;5068138;28;20028;-75
2022/12/29 02:27:11;;;;;;;2.45;0.75;;;;;;;;;;5065171;28;20043;-76
2022/12/29 02:30:15;;;;;;;2.08;0.50;;;;;;;;;;5066174;28;20377;-75
2022/12/29 02:32:49;;;;;;;;;;;;;;;;;;5070545;28;20031;-75
2022/12/29 02:35:36;;;;;;;1.13;0.70;;;;;;;;;;5068595;28;19917;-75
2022/12/29 02:38:14;;;;;;;2.22;0.80;;;;;;;;;;5065528;28;20500;-76
2022/12/29 02:40:53;;;;;;;0.55;0.43;;;;;;;;;;5068598;28;20025;-75
2022/12/29 02:43:30;;;;;;;3.53;1.05;;;;;;;;;;5067748;28;20393;-76
2022/12/29 02:46:11;;;;;;;1.48;0.50;;;;;;;;;;5064458;28;20484;-76
2022/12/29 02:48:48;;;;;;;1.70;0.70;;;;;;;;;;5063980;28;20428;-76
2022/12/29 02:51:32;;;;;;;4.03;0.65;;;;;;;;;;5078811;28;20024;-75
2022/12/29 02:56:42;;;;;;;1.20;0.43;;;;;;;;;;5061521;28;20050;-76
2022/12/29 02:59:08;;;;;;;2.17;0.50;;;;;;;;;;5067853;28;20020;-75
2022/12/29 03:02:16;;;;;;;2.72;0.80;;;;;;;;;;5067041;28;20059;-75
2022/12/29 03:05:04;;;;;;;0.98;0.47;;;;;;;;;;5068584;28;20031;-75
2022/12/29 03:07:51;;;;;;;1.58;0.57;;;;;;;;;;5068840;28;20044;-75
2022/12/29 03:10:22;;;;;;;1.42;0.60;;;;;;;;;;5066055;28;20466;-76
2022/12/29 03:16:04;;;;;;;1.15;0.52;;;;;;;;;;5066509;28;20039;-76
2022/12/29 03:18:41;;;;;;;2.47;0.50;;;;;;;;;;5063149;28;20077;-75
2022/12/29 03:21:12;;;;;;;1.02;0.60;;;;;;;;;;5066976;28;20392;-75
2022/12/29 03:23:41;;;;;;;2.05;0.60;;;;;;;;;;5065107;28;20070;-75
2022/12/29 03:26:10;;;;;;;1.88;0.60;;;;;;;;;;5062799;28;20029;-75
2022/12/29 03:28:52;;;;;;;1.65;0.50;;;;;;;;;;5062004;28;20482;-75
2022/12/29 03:31:19;;;;;;;1.75;0.52;;;;;;;;;;5060775;28;20392;-75
2022/12/29 03:33:47;;;;;;;2.70;0.60;;;;;;;;;;5057464;28;20064;-75
2022/12/29 03:36:23;;;;;;;1.55;0.50;;;;;;;;;;5070887;28;20472;-75
2022/12/29 03:38:57;;;;;;;2.80;0.65;;;;;;;;;;5065198;28;20024;-75
2022/12/29 03:41:28;;;;;;;2.10;0.65;;;;;;;;;;5064256;28;20078;-76
2022/12/29 03:43:53;;;;;;;2.70;0.63;;;;;;;;;;5058482;28;20028;-75
2022/12/29 03:46:22;;;;;;;1.60;0.70;;;;;;;;;;5060181;28;20428;-76
2022/12/29 03:48:47;;;;;;;3.30;0.70;;;;;;;;;;5061790;28;20572;-76
2022/12/29 03:51:12;;;;;;;1.60;0.70;;;;;;;;;;5056162;28;20099;-75
2022/12/29 03:53:38;;;;;;;1.73;0.70;;;;;;;;;;5066923;28;20419;-75
2022/12/29 03:56:04;;;;;;;2.20;0.70;;;;;;;;;;5061933;28;20028;-75
2022/12/29 03:58:29;;;;;;;1.67;0.60;;;;;;;;;;5066010;28;20059;-75
2022/12/29 04:00:55;;;;;;;2.35;0.90;;;;;;;;;;5061456;28;21136;-76
2022/12/29 04:03:20;;;;;;;2.97;0.88;;;;;;;;;;5060638;28;20055;-76
2022/12/29 04:05:45;;;;;;;1.30;0.45;;;;;;;;;;5062491;28;20058;-75
2022/12/29 04:08:11;;;;;;;3.55;0.63;;;;;;;;;;5059886;28;20044;-75
2022/12/29 04:10:36;;;;;;;1.40;0.50;;;;;;;;;;5059933;28;20036;-75
2022/12/29 04:13:02;;;;;;;4.03;0.60;;;;;;;;;;5060690;28;20024;-76
2022/12/29 04:15:27;;;;;;;1.65;0.60;;;;;;;;;;5065656;28;20033;-76
2022/12/29 04:17:52;;;;;;;2.60;0.80;;;;;;;;;;5059926;28;20377;-76
2022/12/29 04:23:03;;;;;;;1.45;0.50;;;;;;;;;;5059469;28;20075;-75
2022/12/29 04:25:31;;;;;;;1.88;0.65;;;;;;;;;;5058343;28;20031;-76
2022/12/29 04:27:56;;;;;;;2.65;0.98;;;;;;;;;;5056729;28;20049;-76
2022/12/29 04:30:22;;;;;;;3.03;0.70;;;;;;;;;;5060622;28;20047;-75
2022/12/29 04:32:47;;;;;;;3.92;0.70;;;;;;;;;;5064759;28;20642;-75
2022/12/29 04:35:12;;;;;;;2.33;0.70;;;;;;;;;;5064174;28;20175;-75
2022/12/29 04:37:38;;;;;;;2.08;0.70;;;;;;;;;;5067021;28;20025;-75
2022/12/29 04:40:04;;;;;;;4.03;0.73;;;;;;;;;;5069082;28;20095;-76
2022/12/29 04:42:29;;;;;;;2.00;0.80;;;;;;;;;;5066154;28;20507;-75
2022/12/29 04:44:54;;;;;;;3.88;0.90;;;;;;;;;;5064547;28;20498;-76
2022/12/29 04:47:20;;;;;;;1.98;0.77;;;;;;;;;;5065131;28;20025;-75
2022/12/29 04:49:45;;;;;;;3.75;0.88;;;;;;;;;;5067447;28;20028;-76
2022/12/29 04:52:10;;;;;;;2.53;0.90;;;;;;;;;;5065806;28;20399;-76
2022/12/29 04:54:36;;;;;;;2.75;0.90;;;;;;;;;;5063850;28;20073;-76
2022/12/29 04:57:01;;;;;;;1.65;0.60;;;;;;;;;;5067902;28;20118;-76
2022/12/29 04:59:26;;;;;;;3.78;0.80;;;;;;;;;;5065505;28;20032;-75
2022/12/29 05:01:52;;;;;;;1.95;0.70;;;;;;;;;;5061947;28;20032;-77
2022/12/29 05:04:17;;;;;;;1.50;0.65;;;;;;;;;;5065968;28;20536;-76
2022/12/29 05:06:42;;;;;;;1.63;0.60;;;;;;;;;;5072975;28;20395;-75
2022/12/29 05:09:08;;;;;;;2.92;0.82;;;;;;;;;;5065197;28;20028;-75
2022/12/29 05:11:33;;;;;;;2.58;0.70;;;;;;;;;;5066779;28;20198;-76
2022/12/29 05:13:58;;;;;;;1.77;0.75;;;;;;;;;;5062709;28;20024;-76
2022/12/29 05:16:24;;;;;;;2.53;0.80;;;;;;;;;;5063222;28;20039;-76
2022/12/29 05:18:49;;;;;;;3.05;1.05;;;;;;;;;;5065667;28;20016;-76
2022/12/29 05:21:14;;;;;;;3.08;0.77;;;;;;;;;;5063589;28;20373;-75
2022/12/29 05:23:40;;;;;;;1.85;0.80;;;;;;;;;;5064334;28;20039;-75
2022/12/29 05:26:05;;;;;;;3.75;0.80;;;;;;;;;;5062971;28;20020;-75
2022/12/29 05:28:31;;;;;;;3.45;1.05;;;;;;;;;;5064994;28;20074;-75
2022/12/29 05:30:56;;;;;;;4.25;0.90;;;;;;;;;;5063212;28;20028;-75
2022/12/29 05:33:21;;;;;;;2.75;0.70;;;;;;;;;;5059655;28;20059;-75
2022/12/29 05:35:47;;;;;;;3.17;0.80;;;;;;;;;;5063097;28;20396;-76
2022/12/29 05:38:12;;;;;;;3.20;0.80;;;;;;;;;;5065439;28;20077;-76
2022/12/29 05:40:38;;;;;;;4.78;0.70;;;;;;;;;;5066485;28;20039;-75
2022/12/29 05:43:03;;;;;;;3.63;0.77;;;;;;;;;;5062056;28;20484;-76
2022/12/29 05:45:29;;;;;;;2.38;0.57;;;;;;;;;;5063298;28;20162;-75
2022/12/29 05:47:54;;;;;;;2.42;0.50;;;;;;;;;;5062527;28;20017;-76
2022/12/29 05:50:20;;;;;;;2.90;0.55;;;;;;;;;;5061922;28;20393;-75
2022/12/29 05:52:45;;;;;;;6.03;0.70;;;;;;;;;;5068485;28;20056;-76
2022/12/29 05:55:11;;;;;;;3.08;0.63;;;;;;;;;;5062491;28;20033;-76
2022/12/29 05:57:36;;;;;;;5.28;0.93;;;;;;;;;;5067028;28;20111;-76
2022/12/29 06:00:04;;;;;;;5.07;0.80;;;;;;;;;;5059301;28;20029;-76
2022/12/29 06:02:29;;;;;;;2.08;0.52;;;;;;;;;;5063430;28;20025;-75
2022/12/29 06:04:54;;;;;;;1.58;0.30;;;;;;;;;;5065617;28;20495;-75
2022/12/29 06:07:20;;;;;;;2.42;0.63;;;;;;;;;;5065347;28;20419;-75
2022/12/29 06:09:45;;;;;;;4.10;0.60;;;;;;;;;;5063573;28;20024;-75
2022/12/29 06:12:11;;;;;;;2.30;0.70;;;;;;;;;;5065303;28;20182;-76
2022/12/29 06:14:36;;;;;;;3.30;0.50;;;;;;;;;;5068617;28;20118;-75
2022/12/29 06:17:01;;;;;;;3.72;0.82;;;;;;;;;;5065701;28;20052;-75
2022/12/29 06:19:27;;;;;;;2.70;0.73;;;;;;;;;;5062901;28;20469;-76
2022/12/29 06:21:52;;;;;;;2.22;0.57;;;;;;;;;;5066492;28;20024;-75
2022/12/29 06:24:18;;;;;;;3.72;0.60;;;;;;;;;;5066057;28;20111;-76
2022/12/29 06:26:43;;;;;;;3.42;0.68;;;;;;;;;;5064194;28;20025;-75
2022/12/29 06:29:09;;;;;;;4.03;0.52;;;;;;;;;;5026276;28;1068824;-75
2022/12/29 06:31:34;;;;;;;3.45;0.77;;;;;;;;;;5068954;28;20056;-75
2022/12/29 06:33:59;;;;;;;4.63;0.98;;;;;;;;;;5063231;28;20107;-76
2022/12/29 06:36:25;;;;;;;4.80;0.75;;;;;;;;;;5064231;28;20052;-75
2022/12/29 06:38:52;;;;;;;5.03;0.73;;;;;;;;;;5067718;28;20028;-75
2022/12/29 06:41:18;;;;;;;6.13;0.98;;;;;;;;;;5060442;28;20032;-76
2022/12/29 06:43:44;;;;;;;2.35;0.50;;;;;;;;;;5066714;28;20032;-75
2022/12/29 06:46:09;;;;;;;4.43;0.80;;;;;;;;;;5066446;28;20032;-76
2022/12/29 06:48:35;;;;;;;3.85;0.60;;;;;;;;;;5060980;28;20110;-75
2022/12/29 06:51:00;;;;;;;4.10;1.17;;;;;;;;;;5066412;28;20029;-75
2022/12/29 06:53:25;;;;;;;2.58;0.70;;;;;;;;;;5066764;28;20366;-76
2022/12/29 06:55:51;;;;;;;3.53;0.70;;;;;;;;;;5061320;28;20040;-75
2022/12/29 06:58:16;;;;;;;2.38;0.47;;;;;;;;;;5061823;28;20023;-76
2022/12/29 07:00:41;;;;;;;3.83;0.82;;;;;;;;;;5066980;28;20024;-75
2022/12/29 07:03:07;;;;;;;1.98;0.50;;;;;;;;;;5068898;28;20036;-76
2022/12/29 07:05:32;;;;;;;4.60;0.68;;;;;;;;;;5066151;28;20038;-75
2022/12/29 07:07:58;;;;;;;1.55;0.50;;;;;;;;;;5065650;28;20028;-76
2022/12/29 07:10:23;;;;;;;1.58;0.40;;;;;;;;;;5063541;28;20396;-75
2022/12/29 07:12:49;;;;;;;2.63;0.70;;;;;;;;;;5059225;28;20032;-76
2022/12/29 07:15:14;;;;;;;5.35;0.98;;;;;;;;;;5061260;28;20584;-76
2022/12/29 07:17:40;;;;;;;3.92;0.77;;;;;;;;;;5065477;28;20069;-75
2022/12/29 07:20:06;;;;;;;2.95;0.50;;;;;;;;;;5076510;28;20480;-75
2022/12/29 07:22:32;;;;;;;3.28;0.63;;;;;;;;;;5063486;28;20052;-75
2022/12/29 07:24:57;;;;;;;3.63;0.63;;;;;;;;;;5064503;28;20021;-75
2022/12/29 07:27:22;;;;;;;4.00;0.93;;;;;;;;;;5060923;28;20049;-75
2022/12/29 07:29:48;;;;;;;3.00;0.63;;;;;;;;;;5061199;28;20515;-75
2022/12/29 07:32:13;;;;;;;3.42;1.00;;;;;;;;;;5061438;28;20060;-75
2022/12/29 07:34:39;;;;;;;3.53;0.60;;;;;;;;;;5060519;28;20033;-75
2022/12/29 07:37:05;;;;;;;2.53;0.77;;;;;;;;;;5067419;28;20021;-75
2022/12/29 07:39:30;;;;;;;4.78;0.77;;;;;;;;;;5074867;28;20024;-75
2022/12/29 07:41:55;;;;;;;6.15;0.80;;;;;;;;;;5064247;28;20020;-75
2022/12/29 07:44:21;;;;;;;4.55;0.65;;;;;;;;;;5061547;28;20040;-76
2022/12/29 07:46:46;;;;;;;3.67;0.75;;;;;;;;;;5067093;28;20032;-75
2022/12/29 07:49:12;;;;;;;3.50;0.77;;;;;;;;;;5065460;28;20028;-75
2022/12/29 07:51:37;;;;;;;4.88;0.90;;;;;;;;;;5060593;28;20081;-75
2022/12/29 07:54:03;;;;;;;5.85;0.88;;;;;;;;;;5062061;28;20446;-76
2022/12/29 07:56:28;;;;;;;2.72;0.65;;;;;;;;;;5067611;28;20035;-76
2022/12/29 07:58:53;;;;;;;4.13;0.90;;;;;;;;;;5058456;28;20052;-75
2022/12/29 08:01:19;;;;;;;3.13;0.93;;;;;;;;;;5061909;28;20051;-75
2022/12/29 08:03:44;;;;;;;6.18;1.20;;;;;;;;;;5060729;28;20024;-75
2022/12/29 08:06:10;;;;;;;4.45;0.80;;;;;;;;;;5057633;28;20073;-75
2022/12/29 08:08:36;;;;;;;7.28;1.00;;;;;;;;;;5061192;28;20021;-75
2022/12/29 08:11:01;;;;;;;3.40;0.70;;;;;;;;;;5065819;28;20028;-75
2022/12/29 08:13:26;;;;;;;5.70;1.17;;;;;;;;;;5067098;28;20201;-75
2022/12/29 08:15:52;;;;;;;4.15;0.73;;;;;;;;;;5062964;28;20085;-76
2022/12/29 08:18:17;;;;;;;4.32;0.90;;;;;;;;;;5059283;28;20119;-76
2022/12/29 08:20:42;;;;;;;3.95;0.68;;;;;;;;;;5062232;28;20059;-75
2022/12/29 08:23:08;;;;;;;4.60;0.88;;;;;;;;;;5065408;28;20127;-75
2022/12/29 08:25:33;;;;;;;3.65;0.90;;;;;;;;;;5059974;28;20029;-75
2022/12/29 08:27:58;;;;;;;4.50;1.00;;;;;;;;;;5060552;28;20069;-75
2022/12/29 08:30:24;;;;;;;5.15;0.82;;;;;;;;;;5065696;28;20819;-75
2022/12/29 08:32:49;;;;;;;5.00;0.95;;;;;;;;;;5065594;28;20048;-77
2022/12/29 08:35:15;;;;;;;5.35;0.93;;;;;;;;;;5066515;28;20032;-75
2022/12/29 08:37:40;;;;;;;3.38;0.80;;;;;;;;;;5067237;28;20503;-75
2022/12/29 08:40:07;;;;;;;6.43;0.98;;;;;;;;;;5064422;28;20052;-76
2022/12/29 08:42:32;;;;;;;4.15;1.00;;;;;;;;;;5068200;28;20029;-75
2022/12/29 08:44:58;;;;;;;4.45;1.05;;;;;;;;;;5068055;28;20083;-75
2022/12/29 08:47:24;;;;;;;5.57;0.90;;;;;;;;;;5066916;28;20046;-75
2022/12/29 08:49:49;;;;;;;6.80;1.13;;;;;;;;;;5064376;28;20032;-75
2022/12/29 08:52:15;;;;;;;3.92;0.85;;;;;;;;;;5067455;28;20024;-75
2022/12/29 08:54:40;;;;;;;6.25;0.93;;;;;;;;;;5060834;28;20033;-75
2022/12/29 08:57:05;;;;;;;5.32;0.82;;;;;;;;;;5064361;28;20039;-75
2022/12/29 08:59:31;;;;;;;6.22;0.68;;;;;;;;;;5062557;28;20021;-75
2022/12/29 09:01:56;;;;;;;5.53;0.95;;;;;;;;;;5063900;28;20024;-75
2022/12/29 09:04:23;;;;;;;5.07;1.25;;;;;;;;;;5060295;28;20021;-75
2022/12/29 09:06:48;;;;;;;4.68;1.10;;;;;;;;;;5065546;28;20028;-75
2022/12/29 09:09:14;;;;;;;4.57;0.73;;;;;;;;;;5065107;28;20028;-75
2022/12/29 09:11:40;;;;;;;7.15;1.70;;;;;;;;;;5061921;28;20530;-75
2022/12/29 09:14:05;;;;;;;5.75;1.15;;;;;;;;;;5062436;28;20016;-75
2022/12/29 09:16:30;;;;;;;7.10;1.05;;;;;;;;;;5061892;28;20021;-76
2022/12/29 09:18:56;;;;;;;6.40;0.88;;;;;;;;;;5057562;28;20029;-76
2022/12/29 09:21:21;;;;;;;7.63;1.10;;;;;;;;;;5066883;28;20020;-74
2022/12/29 09:23:48;;;;;;;6.60;1.15;;;;;;;;;;5063309;28;20489;-75
2022/12/29 09:26:13;;;;;;;6.60;1.27;;;;;;;;;;5069938;28;20028;-75
2022/12/29 09:28:38;;;;;;;4.00;0.80;;;;;;;;;;5068972;28;20048;-75
2022/12/29 09:31:04;;;;;;;4.85;0.80;;;;;;;;;;5068829;28;20033;-75
2022/12/29 09:33:29;;;;;;;6.50;1.23;;;;;;;;;;5066888;28;20396;-76
2022/12/29 09:35:57;;;;;;;6.22;0.90;;;;;;;;;;5069116;28;20059;-75
2022/12/29 09:38:24;;;;;;;6.03;1.25;;;;;;;;;;5064394;28;20024;-75
2022/12/29 09:41:20;;;;;;;6.15;1.10;;;;;;;;;;5070709;28;20066;-75
2022/12/29 09:44:06;;;;;;;3.85;0.80;;;;;;;;;;5062988;28;20484;-75
2022/12/29 09:46:39;;;;;;;6.18;1.05;;;;;;;;;;5069064;28;20031;-75
2022/12/29 09:49:13;;;;;;;5.20;0.70;;;;;;;;;;5064875;28;20469;-75
2022/12/29 09:51:41;;;;;;;4.53;1.30;;;;;;;;;;5068939;28;20035;-76
2022/12/29 09:54:44;;;;;;;3.40;0.90;;;;;;;;;;5068875;28;20051;-76
2022/12/29 09:57:30;;;;;;;4.60;0.82;;;;;;;;;;5069514;28;20080;-75
2022/12/29 10:00:03;;;;;;;3.72;0.90;;;;;;;;;;5064841;28;21312;-76
2022/12/29 10:02:36;;;;;;;3.80;0.88;;;;;;;;;;5064719;28;20388;-76
2022/12/29 10:05:02;;;;;;;;;;;;;;;;;;5066463;28;20500;-76
2022/12/29 10:07:40;;;;;;;3.80;1.10;;;;;;;;;;5065832;28;19913;-76
2022/12/29 10:10:26;;;;;;;5.68;1.50;;;;;;;;;;5070019;28;20028;-76
2022/12/29 10:13:21;;;;;;;6.10;1.42;;;;;;;;;;5067849;28;20073;-76
2022/12/29 10:16:12;;;;;;;6.32;1.17;;;;;;;;;;5076598;28;20488;-76
2022/12/29 10:19:01;;;;;;;6.38;1.08;;;;;;;;;;5066091;28;20500;-76
2022/12/29 10:21:45;;;;;;;3.85;1.02;;;;;;;;;;5067237;28;20035;-76
2022/12/29 10:24:12;;;;;;;2.42;0.90;;;;;;;;;;5066606;28;20117;-76
2022/12/29 10:26:41;;;;;;;4.57;0.93;;;;;;;;;;5070775;28;20085;-76
2022/12/29 10:29:19;;;;;;;4.43;1.02;;;;;;;;;;5065972;28;20072;-75
2022/12/29 10:31:58;;;;;;;3.05;0.82;;;;;;;;;;5042455;28;20029;-77
2022/12/29 10:34:38;;;;;;;3.50;1.08;;;;;;;;;;5049519;28;20094;-77
2022/12/29 10:37:11;;;;;;;5.93;1.30;;;;;;;;;;5060043;28;20025;-76
2022/12/29 10:39:50;;;;;;;4.65;1.25;;;;;;;;;;5056959;28;20484;-76
2022/12/29 10:42:39;;;;;;;3.75;1.17;;;;;;;;;;5050533;28;21551;-76
2022/12/29 10:45:05;;;;;;;4.35;1.10;;;;;;;;;;5048104;28;20031;-75
2022/12/29 10:47:38;;;;;;;4.63;1.05;;;;;;;;;;5056322;28;20036;-75
2022/12/29 10:50:04;;;;;;;;;;;;;;;;;;5052741;28;20115;-75
2022/12/29 10:52:32;;;;;;;8.10;1.83;;;;;;;;;;5052533;28;19916;-75
2022/12/29 10:55:07;;;;;;;5.15;1.40;;;;;;;;;;5055107;28;20392;-75
2022/12/29 10:57:37;;;;;;;5.05;1.00;;;;;;;;;;5057726;28;20029;-75
2022/12/29 11:00:14;;;;;;;5.63;1.60;;;;;;;;;;5058026;28;20032;-76
2022/12/29 11:02:48;;;;;;;7.05;1.40;;;;;;;;;;5057386;28;20067;-76
2022/12/29 11:05:28;;;;;;;5.32;1.58;;;;;;;;;;5055533;28;20043;-76
2022/12/29 11:07:58;;;;;;;5.50;1.58;;;;;;;;;;5062684;28;20068;-76
2022/12/29 11:10:33;;;;;;;7.38;1.52;;;;;;;;;;5058092;28;20039;-76
2022/12/29 11:13:01;;;;;;;6.53;1.65;;;;;;;;;;5054522;28;20028;-76
2022/12/29 11:15:26;;;;;;;6.88;1.55;;;;;;;;;;5059518;28;20358;-75
2022/12/29 11:17:56;;;;;;;7.90;1.95;;;;;;;;;;5062841;28;20026;-75
2022/12/29 11:20:37;;;;;;;5.97;1.88;;;;;;;;;;5063883;28;20036;-76
2022/12/29 11:23:22;;;;;;;8.05;1.60;;;;;;;;;;5056020;28;20025;-77
2022/12/29 11:26:05;;;;;;;6.28;1.90;;;;;;;;;;5052849;28;20024;-76
2022/12/29 11:28:31;;;;;;;6.32;1.80;;;;;;;;;;5060260;28;20890;-76
2022/12/29 11:31:02;;;;;;;6.68;2.10;;;;;;;;;;5059809;28;20028;-76
2022/12/29 11:33:29;;;;;;;8.95;3.70;;;;;;;;;;5058309;28;20393;-76
2022/12/29 11:36:01;;;;;;;7.28;2.40;;;;;;;;;;5057674;28;20140;-76
2022/12/29 11:38:38;;;;;;;6.38;2.10;;;;;;;;;;5057045;28;20124;-75
2022/12/29 11:41:04;;;;;;;6.07;1.73;;;;;;;;;;5058524;28;20032;-75
2022/12/29 11:43:34;;;;;;;5.55;1.83;;;;;;;;;;5053883;28;20400;-76
2022/12/29 11:46:03;;;;;;;4.25;1.70;;;;;;;;;;5053089;28;20505;-76
2022/12/29 11:48:33;;;;;;;12.27;2.50;;;;;;;;;;5054871;28;20024;-77
2022/12/29 11:50:59;;;;;;;9.10;2.60;;;;;;;;;;5058653;28;20079;-75
2022/12/29 11:53:27;;;;;;;9.57;2.20;;;;;;;;;;5061776;28;20029;-76
2022/12/29 11:56:02;;;;;;;6.63;2.22;;;;;;;;;;5058346;28;20492;-76
2022/12/29 11:58:36;;;;;;;8.50;2.40;;;;;;;;;;5061219;28;20106;-76
2022/12/29 12:01:16;;;;;;;7.03;2.00;;;;;;;;;;5054779;28;20100;-76
2022/12/29 12:03:59;;;;;;;7.90;2.20;;;;;;;;;;5060556;28;20024;-76
2022/12/29 12:06:26;;;;;;;7.10;2.20;;;;;;;;;;5056165;28;20029;-76
2022/12/29 12:08:54;;;;;;;5.65;2.08;;;;;;;;;;5059037;28;20021;-76
2022/12/29 12:11:33;;;;;;;6.13;2.10;;;;;;;;;;5062087;28;20111;-75
2022/12/29 12:14:02;;;;;;;9.13;2.20;;;;;;;;;;5053586;28;20028;-75
2022/12/29 12:16:39;;;;;;;7.00;1.95;;;;;;;;;;5053006;28;20051;-76
2022/12/29 12:19:25;;;;;;;7.80;2.28;;;;;;;;;;5060782;28;20054;-75
2022/12/29 12:21:58;;;;;;;7.18;1.65;;;;;;;;;;5059051;28;20107;-76
2022/12/29 12:24:39;;;;;;;7.25;2.20;;;;;;;;;;5062689;28;20043;-76
2022/12/29 12:27:19;;;;;;;5.55;1.70;;;;;;;;;;5070593;28;20025;-75
2022/12/29 12:30:00;;;;;;;5.43;2.13;;;;;;;;;;5063286;28;20052;-76
2022/12/29 12:32:46;;;;;;;10.75;2.08;;;;;;;;;;5071088;28;20032;-75
2022/12/29 12:35:32;;;;;;;6.30;1.90;;;;;;;;;;5069175;28;20095;-75
2022/12/29 12:38:18;;;;;;;6.07;1.92;;;;;;;;;;5068709;28;20021;-75
2022/12/29 12:40:53;;;;;;;7.88;2.17;;;;;;;;;;5065713;28;20142;-75
2022/12/29 12:43:37;;;;;;;12.95;2.47;;;;;;;;;;5068104;28;20078;-75
2022/12/29 12:46:36;;;;;;;6.70;2.28;;;;;;;;;;5072034;28;20158;-75
2022/12/29 12:49:29;;;;;;;7.07;2.53;;;;;;;;;;5055864;28;20532;-76
2022/12/29 12:52:27;;;;;;;11.30;3.00;;;;;;;;;;5064444;28;20504;-75
2022/12/29 12:54:58;;;;;;;5.78;1.80;;;;;;;;;;5072817;28;20044;-75
2022/12/29 12:57:45;;;;;;;8.63;2.13;;;;;;;;;;5074663;28;20020;-76
2022/12/29 13:00:17;;;;;;;7.82;2.58;;;;;;;;;;5064213;28;20036;-76
2022/12/29 13:03:31;;;;;;;6.47;1.90;;;;;;;;;;5075465;28;20024;-75
2022/12/29 13:06:15;;;;;;;9.63;2.30;;;;;;;;;;5064585;28;20020;-75
2022/12/29 13:09:08;;;;;;;7.68;2.03;;;;;;;;;;5072171;28;20099;-75
2022/12/29 13:11:42;;;;;;;6.27;1.67;;;;;;;;;;5072467;28;20028;-75
2022/12/29 13:14:34;;;;;;;5.50;1.80;;;;;;;;;;5069204;28;20025;-75
2022/12/29 13:17:13;;;;;;;6.05;2.22;;;;;;;;;;5074915;28;20028;-75
2022/12/29 13:19:50;;;;;;;8.32;1.85;;;;;;;;;;5075814;28;20017;-75
2022/12/29 13:22:34;;;;;;;5.25;1.50;;;;;;;;;;5073112;28;20035;-75
2022/12/29 13:25:39;;;;;;;4.53;1.58;;;;;;;;;;5072128;28;20021;-75
2022/12/29 13:28:10;;;;;;;7.03;1.88;;;;;;;;;;5068508;28;20052;-76
2022/12/29 13:31:03;;;;;;;6.03;1.70;;;;;;;;;;5066732;28;20039;-75
2022/12/29 13:33:53;;;;;;;8.63;2.35;;;;;;;;;;5072056;28;20372;-75
2022/12/29 13:36:23;;;;;;;10.15;3.63;;;;;;;;;;5072578;28;20029;-75
2022/12/29 13:39:04;;;;;;;6.93;2.28;;;;;;;;;;5073384;28;20472;-75
2022/12/29 13:41:34;;;;;;;4.22;1.35;;;;;;;;;;5062703;28;20044;-75
2022/12/29 13:44:02;;;;;;;3.38;0.95;;;;;;;;;;5071999;28;20021;-75
2022/12/29 13:46:33;;;;;;;4.63;0.70;;;;;;;;;;5068160;28;20025;-75
2022/12/29 13:49:04;;;;;;;2.70;0.80;;;;;;;;;;5072045;28;20021;-75
2022/12/29 13:51:31;;;;;;;1.33;0.77;;;;;;;;;;5066935;28;20037;-76
2022/12/29 13:54:02;;;;;;;3.90;0.80;;;;;;;;;;5074937;28;20025;-75
2022/12/29 13:56:50;;;;;;;1.73;0.80;;;;;;;;;;5072718;28;20388;-76
2022/12/29 13:59:16;;;;;;;5.25;0.95;;;;;;;;;;5066686;28;20040;-75
2022/12/29 14:02:16;;;;;;;2.22;0.63;;;;;;;;;;5068489;28;20041;-75
2022/12/29 14:05:04;;;;;;;3.30;0.70;;;;;;;;;;5062146;28;20070;-75
2022/12/29 14:07:37;;;;;;;3.75;1.10;;;;;;;;;;5064124;28;20024;-76
2022/12/29 14:10:04;;;;;;;4.15;0.98;;;;;;;;;;5064843;28;20063;-75
2022/12/29 14:12:38;;;;;;;2.58;1.15;;;;;;;;;;5086752;28;20484;-75
2022/12/29 14:15:24;;;;;;;7.25;2.53;;;;;;;;;;5070925;28;20025;-75
2022/12/29 14:18:21;;;;;;;6.45;3.00;;;;;;;;;;5066491;28;20020;-75
2022/12/29 14:20:53;;;;;;;5.35;2.10;;;;;;;;;;5071296;28;20033;-75
2022/12/29 14:23:27;;;;;;;2.95;0.95;;;;;;;;;;5072126;28;20060;-76
2022/12/29 14:26:04;;;;;;;5.75;1.35;;;;;;;;;;5068191;28;20047;-75
2022/12/29 14:28:34;;;;;;;5.95;0.98;;;;;;;;;;5069639;28;20048;-76
2022/12/29 14:31:01;;;;;;;3.22;0.90;;;;;;;;;;5068026;28;20020;-75
2022/12/29 14:33:29;;;;;;;5.00;1.05;;;;;;;;;;5073064;28;20427;-76
2022/12/29 14:35:56;;;;;;;4.72;0.98;;;;;;;;;;5067822;28;20032;-75
2022/12/29 14:38:24;;;;;;;4.85;1.15;;;;;;;;;;5066226;28;20208;-75
2022/12/29 14:40:51;;;;;;;4.65;0.90;;;;;;;;;;5064164;28;20469;-75
2022/12/29 14:43:27;;;;;;;5.22;1.10;;;;;;;;;;5072581;28;20077;-76
2022/12/29 14:45:59;;;;;;;4.25;0.98;;;;;;;;;;5067849;28;20039;-75
2022/12/29 14:48:38;;;;;;;5.30;1.37;;;;;;;;;;5072238;28;20085;-75
2022/12/29 14:51:18;;;;;;;4.88;1.13;;;;;;;;;;5077100;28;20024;-76
2022/12/29 14:53:50;;;;;;;3.50;1.00;;;;;;;;;;5072806;28;20036;-75
2022/12/29 14:56:24;;;;;;;4.78;1.30;;;;;;;;;;5066317;28;20052;-76
2022/12/29 14:58:53;;;;;;;4.40;1.23;;;;;;;;;;5066878;28;20480;-75
2022/12/29 15:01:52;;;;;;;2.90;1.10;;;;;;;;;;5070826;28;20393;-75
2022/12/29 15:04:31;;;;;;;4.07;1.10;;;;;;;;;;5065727;28;20384;-75
2022/12/29 15:06:58;;;;;;;6.88;1.17;;;;;;;;;;5066106;28;20024;-75
2022/12/29 15:09:30;;;;;;;5.18;1.30;;;;;;;;;;5074100;28;20028;-76
2022/12/29 15:12:05;;;;;;;5.85;1.25;;;;;;;;;;5070705;28;20020;-75
2022/12/29 15:14:37;;;;;;;4.57;1.17;;;;;;;;;;5076555;28;20062;-75
2022/12/29 15:17:32;;;;;;;4.30;1.50;;;;;;;;;;5071129;28;20108;-76
2022/12/29 15:20:00;;;;;;;4.88;1.20;;;;;;;;;;5065561;28;20764;-76
2022/12/29 15:22:27;;;;;;;5.28;1.00;;;;;;;;;;5067509;28;20484;-75
2022/12/29 15:24:54;;;;;;;4.63;1.05;;;;;;;;;;5066524;28;20385;-75
2022/12/29 15:27:22;;;;;;;4.15;1.02;;;;;;;;;;5068032;28;20024;-75
2022/12/29 15:29:56;;;;;;;5.40;1.33;;;;;;;;;;5068583;28;20029;-76
2022/12/29 15:32:26;;;;;;;4.63;1.20;;;;;;;;;;5072363;28;20039;-75
2022/12/29 15:34:54;;;;;;;4.10;1.30;;;;;;;;;;5071539;28;20082;-75
2022/12/29 15:37:25;;;;;;;2.95;1.13;;;;;;;;;;5070252;28;20059;-75
2022/12/29 15:39:52;;;;;;;4.63;1.60;;;;;;;;;;5071974;28;20427;-75
2022/12/29 15:42:35;;;;;;;4.50;1.20;;;;;;;;;;5069330;28;20035;-76
2022/12/29 15:45:05;;;;;;;8.98;1.40;;;;;;;;;;5063427;28;20021;-76